createdAt,value
2019-01-31T03:41:10.507Z,31.90
2019-01-31T03:56:08.950Z,37.07
2019-01-31T03:58:44.713Z,43.33
2019-01-31T04:01:15.661Z,30.03
2019-01-31T04:04:15.937Z,32.93
2019-01-31T04:09:35.068Z,38.30
2019-01-31T04:12:10.367Z,31.27
2019-01-31T04:14:55.795Z,29.63
2019-01-31T04:17:31.480Z,32.23
2019-01-31T04:20:01.697Z,29.17
2019-01-31T04:25:27.686Z,29.03
2019-01-31T04:28:05.817Z,25.03
2019-01-31T04:30:35.357Z,27.07
2019-01-31T04:35:59.199Z,26.97
2019-01-31T04:38:28.721Z,27.20
2019-01-31T04:40:58.278Z,28.50
2019-01-31T04:43:27.578Z,28.63
2019-01-31T04:45:57.542Z,32.53
2019-01-31T04:48:29.050Z,39.03
2019-01-31T04:50:58.582Z,40.83
2019-01-31T04:53:27.587Z,32.53
2019-01-31T04:55:56.894Z,31.37
2019-01-31T04:58:26.104Z,30.77
2019-01-31T05:00:55.334Z,31.03
2019-01-31T05:03:24.666Z,30.83
2019-01-31T05:05:54.425Z,28.23
2019-01-31T05:08:23.418Z,34.03
2019-01-31T05:10:52.527Z,36.37
2019-01-31T05:13:23.157Z,30.67
2019-01-31T05:15:52.145Z,35.70
2019-01-31T05:18:21.227Z,34.40
2019-01-31T05:20:50.321Z,30.50
2019-01-31T05:23:19.389Z,32.97
2019-01-31T05:25:48.443Z,34.00
2019-01-31T05:28:17.674Z,30.40
2019-01-31T05:30:46.606Z,32.57
2019-01-31T05:33:15.666Z,61.43
2019-01-31T05:35:44.756Z,52.60
2019-01-31T05:38:13.835Z,59.23
2019-01-31T05:40:54.800Z,43.57
2019-01-31T05:43:11.973Z,37.90
2019-01-31T05:45:41.037Z,38.87
2019-01-31T05:48:10.094Z,34.40
2019-01-31T05:50:39.206Z,36.50
2019-01-31T05:53:08.269Z,36.20
2019-01-31T05:55:37.339Z,36.03
2019-01-31T05:58:06.423Z,36.07
2019-01-31T06:00:35.494Z,36.37
2019-01-31T06:03:04.550Z,41.13
2019-01-31T06:05:33.633Z,35.40
2019-01-31T06:08:02.689Z,36.40
2019-01-31T06:10:33.493Z,30.60
2019-01-31T06:13:00.847Z,34.87
2019-01-31T06:15:29.917Z,28.07
2019-01-31T06:17:58.978Z,31.97
2019-01-31T06:20:28.069Z,37.07
2019-01-31T06:22:57.135Z,36.67
2019-01-31T06:25:26.201Z,38.10
2019-01-31T06:27:55.292Z,37.70
2019-01-31T06:30:24.350Z,34.83
2019-01-31T06:32:53.412Z,33.63
2019-01-31T06:35:22.515Z,33.00
2019-01-31T06:37:51.566Z,26.30
2019-01-31T06:40:20.944Z,32.30
2019-01-31T06:42:49.970Z,33.20
2019-01-31T06:45:19.034Z,32.93
2019-01-31T06:47:48.103Z,36.07
2019-01-31T06:50:17.194Z,34.10
2019-01-31T06:52:46.251Z,34.77
2019-01-31T06:55:15.310Z,35.37
2019-01-31T06:57:44.451Z,33.17
2019-01-31T07:00:14.327Z,35.20
2019-01-31T07:02:43.382Z,40.47
2019-01-31T07:05:12.462Z,31.47
2019-01-31T07:07:41.532Z,31.87
2019-01-31T07:10:10.599Z,32.23
2019-01-31T07:12:39.690Z,31.93
2019-01-31T07:15:08.751Z,31.53
2019-01-31T07:17:37.803Z,33.07
2019-01-31T07:20:06.971Z,33.70
2019-01-31T07:22:36.031Z,31.80
2019-01-31T07:25:05.121Z,34.17
2019-01-31T07:27:34.211Z,36.93
2019-01-31T07:30:03.277Z,32.23
2019-01-31T07:32:32.322Z,35.03
2019-01-31T07:35:01.411Z,33.23
2019-01-31T07:37:30.475Z,39.17
2019-01-31T07:39:59.537Z,35.33
2019-01-31T07:42:28.652Z,35.10
2019-01-31T07:44:57.716Z,33.30
2019-01-31T07:47:26.784Z,35.70
2019-01-31T07:49:55.863Z,36.87
2019-01-31T07:52:24.935Z,35.60
2019-01-31T07:54:54.001Z,38.10
2019-01-31T07:57:23.168Z,47.27
2019-01-31T07:59:52.145Z,43.27
2019-01-31T08:02:21.218Z,45.90
2019-01-31T08:04:50.365Z,42.23
2019-01-31T08:07:19.430Z,40.23
2019-01-31T08:09:48.505Z,47.77
2019-01-31T08:12:17.584Z,41.83
2019-01-31T08:14:46.650Z,41.37
2019-01-31T08:17:15.721Z,39.67
2019-01-31T08:19:44.815Z,45.43
2019-01-31T08:22:13.875Z,40.70
2019-01-31T08:24:42.937Z,61.33
2019-01-31T08:27:12.968Z,53.83
2019-01-31T08:29:42.030Z,39.80
2019-01-31T08:32:11.131Z,52.10
2019-01-31T08:34:40.201Z,77.33
2019-01-31T08:37:09.269Z,91.00
2019-01-31T08:39:38.375Z,82.30
2019-01-31T08:42:07.428Z,84.77
2019-01-31T08:44:36.499Z,59.53
2019-01-31T08:47:05.572Z,62.40
2019-01-31T08:49:34.696Z,46.40
2019-01-31T08:52:03.761Z,51.77
2019-01-31T08:54:32.827Z,51.60
2019-01-31T08:57:01.918Z,43.10
2019-01-31T08:59:30.984Z,56.23
2019-01-31T09:02:00.059Z,48.30
2019-01-31T09:04:29.140Z,45.30
2019-01-31T09:06:58.194Z,43.50
2019-01-31T09:09:27.265Z,48.10
2019-01-31T09:11:56.368Z,54.53
2019-01-31T09:14:25.445Z,53.33
2019-01-31T09:16:54.512Z,69.80
2019-01-31T09:19:23.590Z,44.10
2019-01-31T09:21:52.657Z,54.93
2019-01-31T09:24:22.641Z,37.83
2019-01-31T09:26:59.579Z,41.90
2019-01-31T09:29:28.640Z,36.23
2019-01-31T09:32:03.442Z,45.10
2019-01-31T09:34:41.062Z,40.77
2019-01-31T09:37:25.827Z,36.53
2019-01-31T09:39:55.717Z,39.83
2019-01-31T09:42:29.599Z,39.30
2019-01-31T09:45:00.342Z,41.50
2019-01-31T09:47:33.764Z,38.27
2019-01-31T09:50:08.331Z,39.73
2019-01-31T09:52:54.524Z,36.27
2019-01-31T09:55:22.615Z,34.83
2019-01-31T09:57:53.467Z,32.67
2019-01-31T10:00:27.505Z,37.33
2019-01-31T10:03:00.117Z,35.77
2019-01-31T10:05:44.572Z,37.30
2019-01-31T10:08:15.131Z,38.30
2019-01-31T10:11:00.541Z,41.20
2019-01-31T10:13:35.192Z,44.63
2019-01-31T10:16:11.255Z,41.83
2019-01-31T10:18:47.039Z,41.03
2019-01-31T10:21:17.747Z,40.17
2019-01-31T10:23:52.486Z,38.00
2019-01-31T10:26:24.127Z,35.80
2019-01-31T10:28:58.748Z,46.53
2019-01-31T10:31:35.443Z,55.80
2019-01-31T10:34:04.501Z,49.33
2019-01-31T10:36:35.227Z,50.63
2019-01-31T10:39:08.867Z,49.63
2019-01-31T10:41:44.804Z,46.97
2019-01-31T10:44:32.888Z,40.70
2019-01-31T10:47:05.601Z,41.70
2019-01-31T10:49:41.253Z,36.87
2019-01-31T10:52:13.258Z,33.40
2019-01-31T10:54:42.342Z,34.73
2019-01-31T10:57:16.946Z,37.47
2019-01-31T10:59:46.970Z,38.30
2019-01-31T11:02:20.617Z,57.33
2019-01-31T11:05:05.584Z,34.97
2019-01-31T11:07:42.318Z,40.33
2019-01-31T11:10:13.372Z,40.67
2019-01-31T11:12:59.881Z,38.80
2019-01-31T11:15:22.760Z,48.80
2019-01-31T11:17:53.736Z,38.93
2019-01-31T11:20:27.386Z,39.33
2019-01-31T11:23:11.900Z,43.10
2019-01-31T11:25:44.076Z,43.83
2019-01-31T11:28:14.742Z,42.43
2019-01-31T11:30:46.605Z,35.40
2019-01-31T11:33:36.154Z,37.90
2019-01-31T11:38:56.402Z,44.93
2019-01-31T11:41:32.305Z,36.77
2019-01-31T11:44:18.642Z,36.33
2019-01-31T11:46:47.737Z,37.43
2019-01-31T11:49:32.900Z,34.60
2019-01-31T11:52:17.570Z,35.93
2019-01-31T11:54:55.495Z,39.50
2019-01-31T11:57:32.186Z,36.53
2019-01-31T12:00:01.242Z,38.43
2019-01-31T12:02:30.309Z,32.00
2019-01-31T12:04:59.393Z,42.87
2019-01-31T12:07:28.448Z,42.37
2019-01-31T12:09:57.504Z,40.27
2019-01-31T12:12:26.882Z,39.03
2019-01-31T12:14:55.947Z,38.67
2019-01-31T12:17:25.003Z,40.33
2019-01-31T12:19:54.079Z,38.90
2019-01-31T12:22:23.150Z,36.27
2019-01-31T12:24:52.212Z,36.83
2019-01-31T12:27:21.294Z,35.17
2019-01-31T12:29:50.364Z,35.70
2019-01-31T12:32:19.421Z,40.33
2019-01-31T12:34:48.611Z,36.70
2019-01-31T12:37:17.741Z,36.73
2019-01-31T12:39:46.782Z,39.63
2019-01-31T12:42:15.863Z,38.40
2019-01-31T12:44:44.970Z,47.57
2019-01-31T12:47:14.023Z,39.57
2019-01-31T12:49:43.118Z,39.93
2019-01-31T12:52:12.178Z,42.83
2019-01-31T12:54:41.256Z,37.07
2019-01-31T12:57:10.366Z,38.43
2019-01-31T12:59:39.442Z,29.30
2019-01-31T13:02:08.498Z,34.07
2019-01-31T13:04:37.592Z,36.23
2019-01-31T13:07:06.653Z,41.83
2019-01-31T13:09:35.719Z,35.77
2019-01-31T13:12:04.815Z,56.03
2019-01-31T13:14:33.911Z,39.97
2019-01-31T13:17:02.995Z,70.47
2019-01-31T13:19:32.123Z,45.57
2019-01-31T13:22:01.183Z,48.37
2019-01-31T13:24:30.250Z,78.17
2019-01-31T13:26:59.336Z,44.93
2019-01-31T13:29:28.816Z,36.13
2019-01-31T13:31:57.843Z,41.10
2019-01-31T13:34:26.935Z,47.97
2019-01-31T13:36:57.914Z,38.47
2019-01-31T13:39:26.982Z,36.47
2019-01-31T13:41:56.092Z,33.47
2019-01-31T13:44:25.152Z,35.83
2019-01-31T13:46:54.217Z,35.63
2019-01-31T13:49:23.303Z,37.87
2019-01-31T13:51:52.365Z,36.03
2019-01-31T13:54:21.440Z,32.57
2019-01-31T13:56:50.557Z,32.60
2019-01-31T13:59:19.631Z,34.63
2019-01-31T14:01:48.703Z,33.87
2019-01-31T14:04:17.865Z,138.53
2019-01-31T14:06:46.935Z,51.57
2019-01-31T14:09:15.988Z,54.07
2019-01-31T14:11:45.091Z,47.50
2019-01-31T14:14:14.148Z,41.30
2019-01-31T14:16:47.811Z,34.43
2019-01-31T14:19:12.308Z,34.80
2019-01-31T14:21:43.993Z,33.37
2019-01-31T14:24:10.421Z,40.13
2019-01-31T14:26:39.609Z,37.50
2019-01-31T14:29:08.675Z,40.03
2019-01-31T14:31:37.752Z,38.63
2019-01-31T14:34:12.463Z,37.83
2019-01-31T14:36:46.457Z,39.13
2019-01-31T14:39:15.431Z,42.33
2019-01-31T14:41:44.501Z,43.17
2019-01-31T14:44:20.227Z,34.40
2019-01-31T14:46:43.286Z,34.87
2019-01-31T14:49:12.238Z,35.50
2019-01-31T14:51:41.287Z,37.40
2019-01-31T14:54:10.382Z,38.13
2019-01-31T14:56:39.467Z,41.70
2019-01-31T14:59:08.538Z,44.13
2019-01-31T15:01:37.634Z,42.87
2019-01-31T15:04:06.697Z,43.53
2019-01-31T15:06:35.766Z,46.00
2019-01-31T15:09:04.878Z,53.93
2019-01-31T15:11:33.942Z,43.67
2019-01-31T15:14:03.091Z,59.07
2019-01-31T15:16:32.101Z,51.63
2019-01-31T15:19:01.179Z,54.30
2019-01-31T15:21:30.239Z,62.30
2019-01-31T15:23:59.743Z,69.30
2019-01-31T15:26:29.088Z,66.23
2019-01-31T15:28:58.437Z,64.73
2019-01-31T15:31:27.663Z,58.53
2019-01-31T15:33:56.751Z,59.00
2019-01-31T15:36:25.823Z,62.23
2019-01-31T15:38:54.926Z,58.73
2019-01-31T15:41:23.994Z,154.23
2019-01-31T15:43:53.068Z,76.93
2019-01-31T15:46:22.162Z,75.40
2019-01-31T15:48:51.242Z,73.00
2019-01-31T15:51:20.347Z,81.27
2019-01-31T15:53:49.699Z,53.90
2019-01-31T15:56:18.785Z,55.70
2019-01-31T15:58:47.843Z,92.97
2019-01-31T16:01:16.948Z,89.53
2019-01-31T16:03:46.016Z,75.20
2019-01-31T16:06:15.095Z,65.27
2019-01-31T16:08:44.201Z,54.13
2019-01-31T16:11:13.278Z,79.20
2019-01-31T16:13:42.379Z,64.03
2019-01-31T16:16:11.539Z,60.17
2019-01-31T16:18:40.538Z,52.20
2019-01-31T16:21:09.609Z,92.90
2019-01-31T16:23:38.711Z,109.57
2019-01-31T16:26:07.795Z,105.00
2019-01-31T16:28:36.881Z,98.43
2019-01-31T16:31:06.617Z,84.23
2019-01-31T16:33:35.625Z,75.17
2019-01-31T16:36:04.727Z,77.87
2019-01-31T16:38:33.924Z,85.90
2019-01-31T16:41:02.979Z,66.07
2019-01-31T16:43:32.056Z,85.13
2019-01-31T16:46:01.190Z,140.53
2019-01-31T16:48:30.270Z,103.33
2019-01-31T16:50:59.347Z,82.37
2019-01-31T16:53:28.457Z,107.37
2019-01-31T16:55:57.543Z,115.60
2019-01-31T16:58:26.631Z,91.47
2019-01-31T17:00:55.762Z,73.60
2019-01-31T17:03:24.831Z,74.97
2019-01-31T17:05:53.926Z,81.53
2019-01-31T17:08:23.019Z,146.00
2019-01-31T17:10:52.103Z,112.80
2019-01-31T17:13:21.168Z,77.60
2019-01-31T17:15:50.272Z,131.53
2019-01-31T17:18:19.344Z,70.73
2019-01-31T17:20:48.407Z,115.07
2019-01-31T17:23:17.528Z,124.47
2019-01-31T17:25:46.593Z,69.87
2019-01-31T17:28:15.673Z,129.50
2019-01-31T17:30:44.780Z,81.50
2019-01-31T17:33:13.831Z,81.53
2019-01-31T17:35:42.895Z,58.37
2019-01-31T17:38:11.984Z,62.50
2019-01-31T17:40:41.069Z,66.27
2019-01-31T17:43:10.133Z,62.37
2019-01-31T17:45:39.256Z,83.13
2019-01-31T17:48:08.356Z,73.47
2019-01-31T17:50:37.424Z,69.90
2019-01-31T17:53:06.514Z,55.07
2019-01-31T17:55:35.575Z,49.67
2019-01-31T17:58:04.646Z,55.47
2019-01-31T18:00:33.740Z,54.83
2019-01-31T18:03:02.804Z,43.27
2019-01-31T18:05:31.877Z,43.17
2019-01-31T18:08:00.983Z,44.47
2019-01-31T18:10:30.051Z,50.27
2019-01-31T18:12:59.127Z,54.27
2019-01-31T18:15:28.210Z,40.57
2019-01-31T18:17:57.268Z,42.60
2019-01-31T18:20:26.332Z,41.03
2019-01-31T18:22:55.423Z,41.40
2019-01-31T18:25:24.487Z,41.93
2019-01-31T18:27:53.579Z,39.83
2019-01-31T18:30:22.790Z,41.57
2019-01-31T18:32:52.757Z,44.80
2019-01-31T18:35:21.827Z,58.37
2019-01-31T18:37:50.919Z,115.27
2019-01-31T18:40:22.500Z,113.70
2019-01-31T18:42:51.580Z,110.30
2019-01-31T18:45:20.675Z,131.47
2019-01-31T18:47:49.763Z,134.60
2019-01-31T18:50:19.777Z,99.93
2019-01-31T18:52:48.913Z,82.23
2019-01-31T18:55:17.989Z,73.30
2019-01-31T18:57:47.061Z,66.53
2019-01-31T19:00:17.002Z,73.33
2019-01-31T19:02:46.071Z,79.90
2019-01-31T19:05:15.141Z,86.00
2019-01-31T19:07:44.236Z,53.90
2019-01-31T19:10:13.308Z,50.40
2019-01-31T19:12:42.366Z,39.20
2019-01-31T19:15:15.313Z,40.83
2019-01-31T19:17:45.384Z,39.63
2019-01-31T19:20:14.436Z,45.23
2019-01-31T19:22:43.530Z,36.17
2019-01-31T19:25:12.982Z,39.90
2019-01-31T19:27:42.057Z,65.37
2019-01-31T19:30:11.143Z,59.00
2019-01-31T19:32:40.206Z,43.73
2019-01-31T19:35:09.272Z,45.63
2019-01-31T19:37:38.356Z,35.73
2019-01-31T19:40:07.436Z,46.27
2019-01-31T19:42:36.486Z,60.83
2019-01-31T19:45:14.792Z,54.20
2019-01-31T19:47:43.858Z,57.73
2019-01-31T19:50:12.990Z,73.00
2019-01-31T19:52:42.054Z,63.30
2019-01-31T19:55:11.128Z,56.33
2019-01-31T19:57:40.303Z,44.90
2019-01-31T20:00:10.330Z,48.47
2019-01-31T20:02:39.401Z,46.87
2019-01-31T20:05:08.487Z,46.93
2019-01-31T20:07:37.553Z,37.33
2019-01-31T20:10:06.619Z,60.77
2019-01-31T20:12:35.726Z,41.13
2019-01-31T20:15:04.794Z,42.00
2019-01-31T20:17:33.862Z,41.70
2019-01-31T20:20:02.954Z,32.40
2019-01-31T20:22:32.025Z,30.50
2019-01-31T20:25:01.088Z,27.07
2019-01-31T20:27:35.527Z,26.87
2019-01-31T20:30:02.872Z,24.20
2019-01-31T20:32:31.976Z,24.97
2019-01-31T20:35:01.116Z,64.50
2019-01-31T20:37:30.197Z,47.57
2019-01-31T20:39:59.285Z,31.80
2019-01-31T20:42:28.344Z,49.47
2019-01-31T20:44:57.403Z,28.63
2019-01-31T20:47:26.498Z,40.27
2019-01-31T20:49:55.566Z,109.80
2019-01-31T20:52:24.894Z,67.30
2019-01-31T20:54:56.885Z,87.83
2019-01-31T20:57:25.741Z,66.90
2019-01-31T20:59:54.814Z,86.27
2019-01-31T21:02:23.922Z,132.27
2019-01-31T21:04:52.998Z,48.77
2019-01-31T21:07:22.065Z,85.10
2019-01-31T21:09:51.168Z,53.20
2019-01-31T21:12:20.241Z,77.33
2019-01-31T21:14:49.353Z,69.57
2019-01-31T21:17:18.559Z,64.20
2019-01-31T21:19:48.113Z,53.63
2019-01-31T21:22:17.089Z,60.80
2019-01-31T21:24:46.297Z,45.57
2019-01-31T21:27:15.372Z,47.53
2019-01-31T21:29:44.794Z,54.37
2019-01-31T21:32:13.812Z,43.70
2019-01-31T21:34:42.872Z,51.13
2019-01-31T21:37:12.727Z,54.60
2019-01-31T21:39:41.940Z,50.33
2019-01-31T21:42:11.022Z,51.17
2019-01-31T21:44:40.088Z,47.00
2019-01-31T21:47:09.198Z,46.23
2019-01-31T21:49:38.263Z,51.10
2019-01-31T21:52:07.309Z,44.23
2019-01-31T21:54:36.419Z,44.67
2019-01-31T21:57:05.480Z,43.60
2019-01-31T21:59:34.537Z,42.53
2019-01-31T22:02:03.670Z,45.10
2019-01-31T22:04:32.738Z,51.63
2019-01-31T22:07:05.552Z,56.33
2019-01-31T22:09:34.628Z,46.17
2019-01-31T22:12:03.684Z,37.97
2019-01-31T22:14:32.774Z,36.57
2019-01-31T22:17:01.861Z,42.27
2019-01-31T22:19:30.921Z,49.50
2019-01-31T22:22:00.029Z,42.30
2019-01-31T22:24:29.090Z,48.27
2019-01-31T22:26:58.175Z,48.30
2019-01-31T22:29:27.266Z,52.13
2019-01-31T22:31:56.328Z,41.97
2019-01-31T22:34:25.404Z,50.63
2019-01-31T22:36:54.494Z,52.90
2019-01-31T22:39:23.567Z,57.53
2019-01-31T22:41:52.630Z,51.17
2019-01-31T22:44:21.813Z,47.27
2019-01-31T22:46:50.882Z,39.97
2019-01-31T22:49:19.937Z,37.93
2019-01-31T22:51:49.119Z,36.73
2019-01-31T22:54:18.177Z,39.80
2019-01-31T22:56:59.011Z,40.33
2019-01-31T22:59:28.003Z,40.20
2019-01-31T23:01:57.060Z,36.23
2019-01-31T23:04:26.189Z,37.37
2019-01-31T23:06:55.254Z,36.60
2019-01-31T23:09:24.299Z,39.07
2019-01-31T23:11:53.671Z,35.00
2019-01-31T23:14:22.660Z,36.23
2019-01-31T23:16:51.725Z,36.67
2019-01-31T23:19:20.809Z,36.23
2019-01-31T23:21:49.859Z,37.90
2019-01-31T23:24:19.346Z,40.43
2019-01-31T23:26:48.371Z,37.40
2019-01-31T23:29:17.432Z,36.33
2019-01-31T23:31:46.487Z,35.83
2019-01-31T23:34:15.652Z,36.30
2019-01-31T23:36:44.739Z,38.07
2019-01-31T23:39:14.658Z,36.00
2019-01-31T23:41:43.745Z,40.40
2019-01-31T23:44:12.798Z,38.70
2019-01-31T23:46:41.849Z,38.10
2019-01-31T23:49:11.127Z,35.30
2019-01-31T23:51:40.193Z,34.53
2019-01-31T23:54:09.275Z,38.20
2019-01-31T23:56:38.375Z,37.07
2019-01-31T23:59:07.437Z,38.80
